sensor_id;sensor_type;location;lat;lon;timestamp;P1;durP1;ratioP1;P2;durP2;ratioP2
55134;SDS011;41031;44.750;11.308;2024-01-10T00:02:29;15.50;;;9.10;;
55134;SDS011;41031;44.750;11.308;2024-01-10T00:04:58;16.80;;;9.17;;
55134;SDS011;41031;44.750;11.308;2024-01-10T00:07:28;13.40;;;8.90;;
55134;SDS011;41031;44.750;11.308;2024-01-10T00:09:58;14.50;;;7.93;;
55134;SDS011;41031;44.750;11.308;2024-01-10T00:12:30;14.33;;;8.47;;
55134;SDS011;41031;44.750;11.308;2024-01-10T00:15:05;15.00;;;8.63;;
55134;SDS011;41031;44.750;11.308;2024-01-10T00:17:35;13.70;;;8.07;;
55134;SDS011;41031;44.750;11.308;2024-01-10T00:20:06;12.53;;;8.30;;
55134;SDS011;41031;44.750;11.308;2024-01-10T00:22:38;16.53;;;8.53;;
55134;SDS011;41031;44.750;11.308;2024-01-10T00:25:08;13.97;;;8.47;;
55134;SDS011;41031;44.750;11.308;2024-01-10T00:27:38;16.07;;;7.63;;
55134;SDS011;41031;44.750;11.308;2024-01-10T00:30:08;14.40;;;7.70;;
55134;SDS011;41031;44.750;11.308;2024-01-10T00:32:37;13.13;;;8.17;;
55134;SDS011;41031;44.750;11.308;2024-01-10T00:35:08;14.80;;;8.37;;
55134;SDS011;41031;44.750;11.308;2024-01-10T00:37:45;15.33;;;8.67;;
55134;SDS011;41031;44.750;11.308;2024-01-10T00:40:15;15.20;;;7.90;;
55134;SDS011;41031;44.750;11.308;2024-01-10T00:42:45;13.80;;;7.67;;
55134;SDS011;41031;44.750;11.308;2024-01-10T00:45:17;14.47;;;8.40;;
55134;SDS011;41031;44.750;11.308;2024-01-10T00:47:50;12.73;;;8.43;;
55134;SDS011;41031;44.750;11.308;2024-01-10T00:50:20;15.33;;;8.40;;
55134;SDS011;41031;44.750;11.308;2024-01-10T00:52:50;12.60;;;7.67;;
55134;SDS011;41031;44.750;11.308;2024-01-10T00:55:20;14.30;;;8.67;;
55134;SDS011;41031;44.750;11.308;2024-01-10T00:57:53;12.10;;;7.93;;
55134;SDS011;41031;44.750;11.308;2024-01-10T01:00:23;13.27;;;8.07;;
55134;SDS011;41031;44.750;11.308;2024-01-10T01:02:56;13.23;;;7.77;;
55134;SDS011;41031;44.750;11.308;2024-01-10T01:05:28;14.83;;;7.23;;
55134;SDS011;41031;44.750;11.308;2024-01-10T01:07:59;12.27;;;7.73;;
55134;SDS011;41031;44.750;11.308;2024-01-10T01:10:29;13.90;;;7.80;;
55134;SDS011;41031;44.750;11.308;2024-01-10T01:13:03;12.37;;;7.37;;
55134;SDS011;41031;44.750;11.308;2024-01-10T01:15:34;11.93;;;8.13;;
55134;SDS011;41031;44.750;11.308;2024-01-10T01:18:04;12.03;;;8.63;;
55134;SDS011;41031;44.750;11.308;2024-01-10T01:20:37;13.33;;;7.60;;
55134;SDS011;41031;44.750;11.308;2024-01-10T01:23:06;12.10;;;7.10;;
55134;SDS011;41031;44.750;11.308;2024-01-10T01:25:38;9.73;;;7.83;;
55134;SDS011;41031;44.750;11.308;2024-01-10T01:28:10;11.87;;;7.03;;
55134;SDS011;41031;44.750;11.308;2024-01-10T01:30:39;13.07;;;7.83;;
55134;SDS011;41031;44.750;11.308;2024-01-10T01:33:14;14.93;;;8.10;;
55134;SDS011;41031;44.750;11.308;2024-01-10T01:35:45;10.30;;;7.27;;
55134;SDS011;41031;44.750;11.308;2024-01-10T01:38:14;15.27;;;8.20;;
55134;SDS011;41031;44.750;11.308;2024-01-10T01:40:44;10.87;;;6.97;;
55134;SDS011;41031;44.750;11.308;2024-01-10T01:43:23;14.83;;;7.80;;
55134;SDS011;41031;44.750;11.308;2024-01-10T01:45:53;14.13;;;7.50;;
55134;SDS011;41031;44.750;11.308;2024-01-10T01:48:24;12.90;;;8.30;;
55134;SDS011;41031;44.750;11.308;2024-01-10T01:51:00;15.23;;;8.67;;
55134;SDS011;41031;44.750;11.308;2024-01-10T01:53:35;15.90;;;8.87;;
55134;SDS011;41031;44.750;11.308;2024-01-10T01:56:06;19.97;;;9.10;;
55134;SDS011;41031;44.750;11.308;2024-01-10T01:58:36;14.57;;;8.53;;
55134;SDS011;41031;44.750;11.308;2024-01-10T02:01:07;12.30;;;8.23;;
55134;SDS011;41031;44.750;11.308;2024-01-10T02:03:39;14.43;;;8.53;;
55134;SDS011;41031;44.750;11.308;2024-01-10T02:06:09;19.27;;;8.83;;
55134;SDS011;41031;44.750;11.308;2024-01-10T02:08:38;13.80;;;8.47;;
55134;SDS011;41031;44.750;11.308;2024-01-10T02:11:08;17.33;;;8.33;;
55134;SDS011;41031;44.750;11.308;2024-01-10T02:13:37;14.57;;;8.63;;
55134;SDS011;41031;44.750;11.308;2024-01-10T02:16:09;16.03;;;9.07;;
55134;SDS011;41031;44.750;11.308;2024-01-10T02:18:40;19.67;;;9.23;;
55134;SDS011;41031;44.750;11.308;2024-01-10T02:21:10;14.00;;;9.00;;
55134;SDS011;41031;44.750;11.308;2024-01-10T02:23:38;13.53;;;9.00;;
55134;SDS011;41031;44.750;11.308;2024-01-10T02:26:09;15.60;;;9.40;;
55134;SDS011;41031;44.750;11.308;2024-01-10T02:28:41;17.40;;;9.27;;
55134;SDS011;41031;44.750;11.308;2024-01-10T02:31:11;13.07;;;8.60;;
55134;SDS011;41031;44.750;11.308;2024-01-10T02:33:42;14.57;;;9.30;;
55134;SDS011;41031;44.750;11.308;2024-01-10T02:36:11;13.90;;;9.10;;
55134;SDS011;41031;44.750;11.308;2024-01-10T02:38:41;12.73;;;8.43;;
55134;SDS011;41031;44.750;11.308;2024-01-10T02:41:11;15.43;;;8.80;;
55134;SDS011;41031;44.750;11.308;2024-01-10T02:43:40;14.10;;;8.87;;
55134;SDS011;41031;44.750;11.308;2024-01-10T02:46:09;13.60;;;8.63;;
55134;SDS011;41031;44.750;11.308;2024-01-10T02:48:39;16.07;;;9.10;;
55134;SDS011;41031;44.750;11.308;2024-01-10T02:51:10;15.10;;;8.67;;
55134;SDS011;41031;44.750;11.308;2024-01-10T02:53:39;15.43;;;9.47;;
55134;SDS011;41031;44.750;11.308;2024-01-10T02:56:10;16.80;;;8.80;;
55134;SDS011;41031;44.750;11.308;2024-01-10T02:58:39;13.87;;;9.33;;
55134;SDS011;41031;44.750;11.308;2024-01-10T03:01:09;13.70;;;8.27;;
55134;SDS011;41031;44.750;11.308;2024-01-10T03:03:39;13.00;;;8.03;;
55134;SDS011;41031;44.750;11.308;2024-01-10T03:06:09;12.17;;;8.07;;
55134;SDS011;41031;44.750;11.308;2024-01-10T03:08:38;12.97;;;8.53;;
55134;SDS011;41031;44.750;11.308;2024-01-10T03:11:08;14.77;;;8.53;;
55134;SDS011;41031;44.750;11.308;2024-01-10T03:13:37;12.73;;;7.87;;
55134;SDS011;41031;44.750;11.308;2024-01-10T03:16:07;13.97;;;9.33;;
55134;SDS011;41031;44.750;11.308;2024-01-10T03:18:38;14.40;;;9.10;;
55134;SDS011;41031;44.750;11.308;2024-01-10T03:21:07;12.37;;;7.43;;
55134;SDS011;41031;44.750;11.308;2024-01-10T03:23:37;13.50;;;8.63;;
55134;SDS011;41031;44.750;11.308;2024-01-10T03:26:07;11.47;;;7.37;;
55134;SDS011;41031;44.750;11.308;2024-01-10T03:28:38;14.00;;;8.40;;
55134;SDS011;41031;44.750;11.308;2024-01-10T03:31:10;16.50;;;8.03;;
55134;SDS011;41031;44.750;11.308;2024-01-10T03:33:40;15.13;;;8.10;;
55134;SDS011;41031;44.750;11.308;2024-01-10T03:36:11;14.00;;;8.47;;
55134;SDS011;41031;44.750;11.308;2024-01-10T03:38:44;14.00;;;8.87;;
55134;SDS011;41031;44.750;11.308;2024-01-10T03:41:15;14.63;;;8.50;;
55134;SDS011;41031;44.750;11.308;2024-01-10T03:43:47;13.33;;;8.60;;
55134;SDS011;41031;44.750;11.308;2024-01-10T03:46:16;13.60;;;9.00;;
55134;SDS011;41031;44.750;11.308;2024-01-10T03:48:46;15.37;;;8.23;;
55134;SDS011;41031;44.750;11.308;2024-01-10T03:51:17;17.60;;;8.60;;
55134;SDS011;41031;44.750;11.308;2024-01-10T03:53:47;12.80;;;8.47;;
55134;SDS011;41031;44.750;11.308;2024-01-10T03:56:17;15.03;;;8.60;;
55134;SDS011;41031;44.750;11.308;2024-01-10T03:58:48;14.30;;;9.97;;
55134;SDS011;41031;44.750;11.308;2024-01-10T04:01:21;16.63;;;8.97;;
55134;SDS011;41031;44.750;11.308;2024-01-10T04:03:51;15.63;;;8.60;;
55134;SDS011;41031;44.750;11.308;2024-01-10T04:06:21;14.63;;;8.57;;
55134;SDS011;41031;44.750;11.308;2024-01-10T04:08:52;13.30;;;7.93;;
55134;SDS011;41031;44.750;11.308;2024-01-10T04:11:22;13.77;;;8.57;;
55134;SDS011;41031;44.750;11.308;2024-01-10T04:13:53;14.30;;;8.37;;
55134;SDS011;41031;44.750;11.308;2024-01-10T04:16:23;14.20;;;8.10;;
55134;SDS011;41031;44.750;11.308;2024-01-10T04:18:56;13.63;;;8.43;;
55134;SDS011;41031;44.750;11.308;2024-01-10T04:21:26;12.37;;;7.50;;
55134;SDS011;41031;44.750;11.308;2024-01-10T04:23:56;13.63;;;8.40;;
55134;SDS011;41031;44.750;11.308;2024-01-10T04:26:26;12.07;;;8.03;;
55134;SDS011;41031;44.750;11.308;2024-01-10T04:28:57;16.00;;;8.70;;
55134;SDS011;41031;44.750;11.308;2024-01-10T04:31:27;11.53;;;8.13;;
55134;SDS011;41031;44.750;11.308;2024-01-10T04:33:57;16.13;;;9.07;;
55134;SDS011;41031;44.750;11.308;2024-01-10T04:36:27;15.47;;;8.87;;
55134;SDS011;41031;44.750;11.308;2024-01-10T04:38:57;12.37;;;8.37;;
55134;SDS011;41031;44.750;11.308;2024-01-10T04:41:27;12.47;;;7.90;;
55134;SDS011;41031;44.750;11.308;2024-01-10T04:43:57;15.73;;;9.27;;
55134;SDS011;41031;44.750;11.308;2024-01-10T04:46:27;9.53;;;7.30;;
55134;SDS011;41031;44.750;11.308;2024-01-10T04:49:03;16.73;;;8.57;;
55134;SDS011;41031;44.750;11.308;2024-01-10T04:51:33;13.10;;;8.03;;
55134;SDS011;41031;44.750;11.308;2024-01-10T04:54:03;14.57;;;8.40;;
55134;SDS011;41031;44.750;11.308;2024-01-10T04:56:33;13.57;;;8.67;;
55134;SDS011;41031;44.750;11.308;2024-01-10T04:59:05;15.93;;;9.10;;
55134;SDS011;41031;44.750;11.308;2024-01-10T05:01:35;14.33;;;8.77;;
55134;SDS011;41031;44.750;11.308;2024-01-10T05:04:08;16.43;;;8.93;;
55134;SDS011;41031;44.750;11.308;2024-01-10T05:06:38;13.70;;;9.13;;
55134;SDS011;41031;44.750;11.308;2024-01-10T05:09:09;14.20;;;8.93;;
55134;SDS011;41031;44.750;11.308;2024-01-10T05:11:39;10.53;;;7.83;;
55134;SDS011;41031;44.750;11.308;2024-01-10T05:14:10;12.30;;;8.47;;
55134;SDS011;41031;44.750;11.308;2024-01-10T05:16:40;16.83;;;8.50;;
55134;SDS011;41031;44.750;11.308;2024-01-10T05:19:11;11.33;;;7.70;;
55134;SDS011;41031;44.750;11.308;2024-01-10T05:21:41;15.17;;;8.87;;
55134;SDS011;41031;44.750;11.308;2024-01-10T05:24:12;11.93;;;8.47;;
55134;SDS011;41031;44.750;11.308;2024-01-10T05:26:43;19.40;;;9.30;;
55134;SDS011;41031;44.750;11.308;2024-01-10T05:29:15;13.67;;;8.53;;
55134;SDS011;41031;44.750;11.308;2024-01-10T05:31:46;10.67;;;7.40;;
55134;SDS011;41031;44.750;11.308;2024-01-10T05:34:16;14.10;;;7.93;;
55134;SDS011;41031;44.750;11.308;2024-01-10T05:36:45;13.27;;;8.03;;
55134;SDS011;41031;44.750;11.308;2024-01-10T05:39:16;12.97;;;8.17;;
55134;SDS011;41031;44.750;11.308;2024-01-10T05:41:50;15.50;;;7.77;;
55134;SDS011;41031;44.750;11.308;2024-01-10T05:44:20;18.87;;;8.80;;
55134;SDS011;41031;44.750;11.308;2024-01-10T05:46:49;11.33;;;7.70;;
55134;SDS011;41031;44.750;11.308;2024-01-10T05:49:21;13.77;;;8.87;;
55134;SDS011;41031;44.750;11.308;2024-01-10T05:51:51;13.57;;;7.37;;
55134;SDS011;41031;44.750;11.308;2024-01-10T05:54:21;13.00;;;8.60;;
55134;SDS011;41031;44.750;11.308;2024-01-10T05:56:51;11.57;;;7.80;;
55134;SDS011;41031;44.750;11.308;2024-01-10T05:59:21;13.53;;;7.90;;
55134;SDS011;41031;44.750;11.308;2024-01-10T06:01:55;17.97;;;9.20;;
55134;SDS011;41031;44.750;11.308;2024-01-10T06:04:26;15.53;;;9.10;;
55134;SDS011;41031;44.750;11.308;2024-01-10T06:06:58;11.97;;;8.30;;
55134;SDS011;41031;44.750;11.308;2024-01-10T06:09:29;16.33;;;9.60;;
55134;SDS011;41031;44.750;11.308;2024-01-10T06:11:59;16.33;;;8.33;;
55134;SDS011;41031;44.750;11.308;2024-01-10T06:14:30;18.00;;;9.90;;
55134;SDS011;41031;44.750;11.308;2024-01-10T06:17:00;15.83;;;8.97;;
55134;SDS011;41031;44.750;11.308;2024-01-10T06:19:32;15.70;;;8.93;;
55134;SDS011;41031;44.750;11.308;2024-01-10T06:22:03;18.83;;;10.27;;
55134;SDS011;41031;44.750;11.308;2024-01-10T06:24:33;18.23;;;8.33;;
55134;SDS011;41031;44.750;11.308;2024-01-10T06:27:03;12.67;;;8.30;;
55134;SDS011;41031;44.750;11.308;2024-01-10T06:29:39;13.03;;;8.13;;
55134;SDS011;41031;44.750;11.308;2024-01-10T06:32:10;16.70;;;8.53;;
55134;SDS011;41031;44.750;11.308;2024-01-10T06:34:41;13.50;;;8.37;;
55134;SDS011;41031;44.750;11.308;2024-01-10T06:37:12;17.90;;;9.50;;
55134;SDS011;41031;44.750;11.308;2024-01-10T06:39:43;14.57;;;9.00;;
55134;SDS011;41031;44.750;11.308;2024-01-10T06:42:14;19.80;;;9.13;;
55134;SDS011;41031;44.750;11.308;2024-01-10T06:44:45;13.43;;;9.37;;
55134;SDS011;41031;44.750;11.308;2024-01-10T06:47:17;14.57;;;8.77;;
55134;SDS011;41031;44.750;11.308;2024-01-10T06:49:51;12.90;;;8.37;;
55134;SDS011;41031;44.750;11.308;2024-01-10T06:52:22;15.47;;;8.20;;
55134;SDS011;41031;44.750;11.308;2024-01-10T06:54:55;17.17;;;8.70;;
55134;SDS011;41031;44.750;11.308;2024-01-10T06:57:26;13.83;;;8.57;;
55134;SDS011;41031;44.750;11.308;2024-01-10T06:59:56;14.43;;;9.27;;
55134;SDS011;41031;44.750;11.308;2024-01-10T07:02:26;14.67;;;8.73;;
55134;SDS011;41031;44.750;11.308;2024-01-10T07:04:56;13.07;;;8.30;;
55134;SDS011;41031;44.750;11.308;2024-01-10T07:07:27;14.67;;;9.17;;
55134;SDS011;41031;44.750;11.308;2024-01-10T07:10:01;14.77;;;9.53;;
55134;SDS011;41031;44.750;11.308;2024-01-10T07:12:33;14.10;;;8.90;;
55134;SDS011;41031;44.750;11.308;2024-01-10T07:15:03;15.00;;;9.87;;
55134;SDS011;41031;44.750;11.308;2024-01-10T07:17:35;15.77;;;9.47;;
55134;SDS011;41031;44.750;11.308;2024-01-10T07:20:05;16.17;;;9.30;;
55134;SDS011;41031;44.750;11.308;2024-01-10T07:22:36;13.50;;;9.93;;
55134;SDS011;41031;44.750;11.308;2024-01-10T07:25:12;14.43;;;9.30;;
55134;SDS011;41031;44.750;11.308;2024-01-10T07:27:47;18.10;;;10.47;;
55134;SDS011;41031;44.750;11.308;2024-01-10T07:30:18;19.37;;;11.07;;
55134;SDS011;41031;44.750;11.308;2024-01-10T07:32:48;20.67;;;10.97;;
55134;SDS011;41031;44.750;11.308;2024-01-10T07:35:18;19.10;;;11.63;;
55134;SDS011;41031;44.750;11.308;2024-01-10T07:37:50;23.57;;;11.67;;
55134;SDS011;41031;44.750;11.308;2024-01-10T07:40:24;18.23;;;10.70;;
55134;SDS011;41031;44.750;11.308;2024-01-10T07:42:54;18.30;;;11.17;;
55134;SDS011;41031;44.750;11.308;2024-01-10T07:45:24;17.50;;;10.13;;
55134;SDS011;41031;44.750;11.308;2024-01-10T07:47:54;15.63;;;10.27;;
55134;SDS011;41031;44.750;11.308;2024-01-10T07:50:28;20.47;;;11.20;;
55134;SDS011;41031;44.750;11.308;2024-01-10T07:52:58;18.10;;;10.40;;
55134;SDS011;41031;44.750;11.308;2024-01-10T07:55:29;16.57;;;9.23;;
55134;SDS011;41031;44.750;11.308;2024-01-10T07:57:59;17.00;;;10.70;;
55134;SDS011;41031;44.750;11.308;2024-01-10T08:00:30;16.73;;;9.27;;
55134;SDS011;41031;44.750;11.308;2024-01-10T08:02:59;13.80;;;9.07;;
55134;SDS011;41031;44.750;11.308;2024-01-10T08:05:29;14.97;;;9.83;;
55134;SDS011;41031;44.750;11.308;2024-01-10T08:08:06;14.53;;;10.33;;
55134;SDS011;41031;44.750;11.308;2024-01-10T08:10:37;18.33;;;11.13;;
55134;SDS011;41031;44.750;11.308;2024-01-10T08:13:09;16.17;;;9.60;;
55134;SDS011;41031;44.750;11.308;2024-01-10T08:15:42;18.70;;;10.77;;
55134;SDS011;41031;44.750;11.308;2024-01-10T08:18:13;17.40;;;9.93;;
55134;SDS011;41031;44.750;11.308;2024-01-10T08:20:45;18.23;;;10.27;;
55134;SDS011;41031;44.750;11.308;2024-01-10T08:23:16;20.97;;;11.77;;
55134;SDS011;41031;44.750;11.308;2024-01-10T08:25:50;17.20;;;10.43;;
55134;SDS011;41031;44.750;11.308;2024-01-10T08:28:20;17.40;;;10.53;;
55134;SDS011;41031;44.750;11.308;2024-01-10T08:30:52;15.83;;;9.50;;
55134;SDS011;41031;44.750;11.308;2024-01-10T08:33:30;14.73;;;9.47;;
55134;SDS011;41031;44.750;11.308;2024-01-10T08:36:00;16.53;;;10.27;;
55134;SDS011;41031;44.750;11.308;2024-01-10T08:38:31;18.20;;;10.03;;
55134;SDS011;41031;44.750;11.308;2024-01-10T08:41:03;16.27;;;9.17;;
55134;SDS011;41031;44.750;11.308;2024-01-10T08:43:40;15.30;;;9.10;;
55134;SDS011;41031;44.750;11.308;2024-01-10T08:46:10;16.67;;;10.90;;
55134;SDS011;41031;44.750;11.308;2024-01-10T08:48:42;17.13;;;9.93;;
55134;SDS011;41031;44.750;11.308;2024-01-10T08:51:14;14.73;;;9.17;;
55134;SDS011;41031;44.750;11.308;2024-01-10T08:53:47;15.00;;;10.03;;
55134;SDS011;41031;44.750;11.308;2024-01-10T08:56:18;14.13;;;8.27;;
55134;SDS011;41031;44.750;11.308;2024-01-10T08:58:48;13.43;;;9.63;;
55134;SDS011;41031;44.750;11.308;2024-01-10T09:01:19;18.57;;;10.50;;
55134;SDS011;41031;44.750;11.308;2024-01-10T09:03:50;17.47;;;10.37;;
55134;SDS011;41031;44.750;11.308;2024-01-10T09:06:20;19.43;;;10.73;;
55134;SDS011;41031;44.750;11.308;2024-01-10T09:08:51;17.83;;;10.60;;
55134;SDS011;41031;44.750;11.308;2024-01-10T09:11:21;17.80;;;10.97;;
55134;SDS011;41031;44.750;11.308;2024-01-10T09:13:56;17.63;;;9.90;;
55134;SDS011;41031;44.750;11.308;2024-01-10T09:16:25;14.93;;;10.23;;
55134;SDS011;41031;44.750;11.308;2024-01-10T09:19:01;15.33;;;10.17;;
55134;SDS011;41031;44.750;11.308;2024-01-10T09:21:34;18.33;;;10.90;;
55134;SDS011;41031;44.750;11.308;2024-01-10T09:24:05;17.43;;;10.30;;
55134;SDS011;41031;44.750;11.308;2024-01-10T09:26:52;28.80;;;11.43;;
55134;SDS011;41031;44.750;11.308;2024-01-10T09:29:23;15.03;;;10.00;;
55134;SDS011;41031;44.750;11.308;2024-01-10T09:31:54;21.87;;;11.20;;
55134;SDS011;41031;44.750;11.308;2024-01-10T09:34:25;14.83;;;9.43;;
55134;SDS011;41031;44.750;11.308;2024-01-10T09:36:58;19.10;;;9.33;;
55134;SDS011;41031;44.750;11.308;2024-01-10T09:39:30;18.07;;;10.03;;
55134;SDS011;41031;44.750;11.308;2024-01-10T09:42:00;17.20;;;11.03;;
55134;SDS011;41031;44.750;11.308;2024-01-10T09:44:32;16.93;;;11.67;;
55134;SDS011;41031;44.750;11.308;2024-01-10T09:47:02;17.80;;;11.20;;
55134;SDS011;41031;44.750;11.308;2024-01-10T09:49:33;18.13;;;10.93;;
55134;SDS011;41031;44.750;11.308;2024-01-10T09:52:05;17.43;;;10.83;;
55134;SDS011;41031;44.750;11.308;2024-01-10T09:54:43;15.10;;;10.63;;
55134;SDS011;41031;44.750;11.308;2024-01-10T09:57:15;14.40;;;9.63;;
55134;SDS011;41031;44.750;11.308;2024-01-10T09:59:45;18.37;;;10.37;;
55134;SDS011;41031;44.750;11.308;2024-01-10T10:02:17;19.57;;;10.13;;
55134;SDS011;41031;44.750;11.308;2024-01-10T10:04:53;14.70;;;9.27;;
55134;SDS011;41031;44.750;11.308;2024-01-10T10:07:44;14.03;;;10.13;;
55134;SDS011;41031;44.750;11.308;2024-01-10T10:10:25;15.33;;;10.10;;
55134;SDS011;41031;44.750;11.308;2024-01-10T10:12:56;17.67;;;10.17;;
55134;SDS011;41031;44.750;11.308;2024-01-10T10:15:27;16.30;;;10.40;;
55134;SDS011;41031;44.750;11.308;2024-01-10T10:17:57;14.20;;;9.50;;
55134;SDS011;41031;44.750;11.308;2024-01-10T10:20:30;15.77;;;9.63;;
55134;SDS011;41031;44.750;11.308;2024-01-10T10:23:06;16.87;;;9.87;;
55134;SDS011;41031;44.750;11.308;2024-01-10T10:25:44;15.43;;;10.73;;
55134;SDS011;41031;44.750;11.308;2024-01-10T10:28:16;14.67;;;9.40;;
55134;SDS011;41031;44.750;11.308;2024-01-10T10:30:59;14.47;;;9.77;;
55134;SDS011;41031;44.750;11.308;2024-01-10T10:33:34;16.80;;;11.37;;
55134;SDS011;41031;44.750;11.308;2024-01-10T10:36:06;17.17;;;10.20;;
55134;SDS011;41031;44.750;11.308;2024-01-10T10:38:36;14.73;;;9.40;;
55134;SDS011;41031;44.750;11.308;2024-01-10T10:41:10;16.27;;;9.40;;
55134;SDS011;41031;44.750;11.308;2024-01-10T10:43:41;15.40;;;8.97;;
55134;SDS011;41031;44.750;11.308;2024-01-10T10:46:11;16.20;;;10.27;;
55134;SDS011;41031;44.750;11.308;2024-01-10T10:48:45;17.30;;;9.20;;
55134;SDS011;41031;44.750;11.308;2024-01-10T10:54:14;14.47;;;9.03;;
55134;SDS011;41031;44.750;11.308;2024-01-10T10:56:48;13.97;;;8.83;;
55134;SDS011;41031;44.750;11.308;2024-01-10T10:59:20;14.97;;;9.17;;
55134;SDS011;41031;44.750;11.308;2024-01-10T11:01:54;14.77;;;8.67;;
55134;SDS011;41031;44.750;11.308;2024-01-10T11:04:38;14.67;;;9.77;;
55134;SDS011;41031;44.750;11.308;2024-01-10T11:07:10;13.17;;;8.73;;
55134;SDS011;41031;44.750;11.308;2024-01-10T11:09:40;16.57;;;9.03;;
55134;SDS011;41031;44.750;11.308;2024-01-10T11:24:17;13.37;;;8.63;;
55134;SDS011;41031;44.750;11.308;2024-01-10T11:26:47;18.13;;;9.03;;
55134;SDS011;41031;44.750;11.308;2024-01-10T11:29:28;15.70;;;8.93;;
55134;SDS011;41031;44.750;11.308;2024-01-10T11:32:00;13.27;;;7.97;;
55134;SDS011;41031;44.750;11.308;2024-01-10T11:34:30;13.17;;;8.47;;
55134;SDS011;41031;44.750;11.308;2024-01-10T11:37:09;12.97;;;8.43;;
55134;SDS011;41031;44.750;11.308;2024-01-10T11:39:42;11.17;;;7.70;;
55134;SDS011;41031;44.750;11.308;2024-01-10T11:42:23;13.80;;;8.60;;
55134;SDS011;41031;44.750;11.308;2024-01-10T11:45:55;11.40;;;7.17;;
55134;SDS011;41031;44.750;11.308;2024-01-10T11:48:07;13.67;;;8.30;;
55134;SDS011;41031;44.750;11.308;2024-01-10T11:50:40;12.40;;;7.57;;
55134;SDS011;41031;44.750;11.308;2024-01-10T11:53:10;12.07;;;7.13;;
55134;SDS011;41031;44.750;11.308;2024-01-10T11:55:47;13.90;;;8.77;;
55134;SDS011;41031;44.750;11.308;2024-01-10T11:58:23;12.03;;;7.37;;
55134;SDS011;41031;44.750;11.308;2024-01-10T12:00:53;13.97;;;8.97;;
55134;SDS011;41031;44.750;11.308;2024-01-10T12:03:24;11.80;;;7.83;;
55134;SDS011;41031;44.750;11.308;2024-01-10T12:05:55;13.33;;;7.80;;
55134;SDS011;41031;44.750;11.308;2024-01-10T12:08:29;14.90;;;8.37;;
55134;SDS011;41031;44.750;11.308;2024-01-10T12:11:01;11.67;;;7.53;;
55134;SDS011;41031;44.750;11.308;2024-01-10T12:13:30;13.53;;;8.00;;
55134;SDS011;41031;44.750;11.308;2024-01-10T12:16:01;10.63;;;7.10;;
55134;SDS011;41031;44.750;11.308;2024-01-10T12:18:35;12.00;;;8.63;;
55134;SDS011;41031;44.750;11.308;2024-01-10T12:21:07;13.07;;;7.87;;
55134;SDS011;41031;44.750;11.308;2024-01-10T12:23:37;13.27;;;7.83;;
55134;SDS011;41031;44.750;11.308;2024-01-10T12:26:11;11.77;;;7.20;;
55134;SDS011;41031;44.750;11.308;2024-01-10T12:28:41;13.73;;;7.57;;
55134;SDS011;41031;44.750;11.308;2024-01-10T12:31:24;13.37;;;8.50;;
55134;SDS011;41031;44.750;11.308;2024-01-10T12:33:56;11.20;;;7.83;;
55134;SDS011;41031;44.750;11.308;2024-01-10T12:36:38;11.57;;;7.80;;
55134;SDS011;41031;44.750;11.308;2024-01-10T12:39:11;14.30;;;8.40;;
55134;SDS011;41031;44.750;11.308;2024-01-10T12:41:42;12.07;;;7.33;;
55134;SDS011;41031;44.750;11.308;2024-01-10T12:44:14;13.30;;;7.40;;
55134;SDS011;41031;44.750;11.308;2024-01-10T12:46:51;12.23;;;8.13;;
55134;SDS011;41031;44.750;11.308;2024-01-10T12:49:24;11.87;;;7.87;;
55134;SDS011;41031;44.750;11.308;2024-01-10T12:51:54;14.53;;;8.63;;
55134;SDS011;41031;44.750;11.308;2024-01-10T12:54:24;14.07;;;8.50;;
55134;SDS011;41031;44.750;11.308;2024-01-10T12:56:55;17.23;;;8.50;;
55134;SDS011;41031;44.750;11.308;2024-01-10T12:59:26;12.80;;;8.40;;
55134;SDS011;41031;44.750;11.308;2024-01-10T13:01:57;12.37;;;8.17;;
55134;SDS011;41031;44.750;11.308;2024-01-10T13:04:30;12.37;;;8.77;;
55134;SDS011;41031;44.750;11.308;2024-01-10T13:07:00;10.27;;;7.50;;
55134;SDS011;41031;44.750;11.308;2024-01-10T13:09:31;12.50;;;8.03;;
55134;SDS011;41031;44.750;11.308;2024-01-10T13:12:04;12.90;;;8.40;;
55134;SDS011;41031;44.750;11.308;2024-01-10T13:14:35;14.40;;;7.77;;
55134;SDS011;41031;44.750;11.308;2024-01-10T13:17:11;13.77;;;8.50;;
55134;SDS011;41031;44.750;11.308;2024-01-10T13:19:41;13.30;;;8.37;;
55134;SDS011;41031;44.750;11.308;2024-01-10T13:22:38;10.97;;;7.23;;
55134;SDS011;41031;44.750;11.308;2024-01-10T13:25:08;15.50;;;8.83;;
55134;SDS011;41031;44.750;11.308;2024-01-10T13:27:38;14.20;;;9.23;;
55134;SDS011;41031;44.750;11.308;2024-01-10T13:30:09;13.77;;;8.43;;
55134;SDS011;41031;44.750;11.308;2024-01-10T13:32:42;12.83;;;9.07;;
55134;SDS011;41031;44.750;11.308;2024-01-10T13:35:13;16.50;;;9.10;;
55134;SDS011;41031;44.750;11.308;2024-01-10T13:37:45;13.73;;;8.80;;
55134;SDS011;41031;44.750;11.308;2024-01-10T13:40:18;14.50;;;8.33;;
55134;SDS011;41031;44.750;11.308;2024-01-10T13:42:52;15.20;;;8.50;;
55134;SDS011;41031;44.750;11.308;2024-01-10T13:45:23;13.63;;;8.50;;
55134;SDS011;41031;44.750;11.308;2024-01-10T13:47:55;13.70;;;8.17;;
55134;SDS011;41031;44.750;11.308;2024-01-10T13:50:25;15.77;;;7.90;;
55134;SDS011;41031;44.750;11.308;2024-01-10T13:52:56;14.83;;;8.80;;
55134;SDS011;41031;44.750;11.308;2024-01-10T13:55:27;13.90;;;7.90;;
55134;SDS011;41031;44.750;11.308;2024-01-10T13:57:58;15.80;;;8.17;;
55134;SDS011;41031;44.750;11.308;2024-01-10T14:00:32;13.67;;;9.03;;
55134;SDS011;41031;44.750;11.308;2024-01-10T14:03:02;14.77;;;8.37;;
55134;SDS011;41031;44.750;11.308;2024-01-10T14:05:32;14.27;;;8.00;;
55134;SDS011;41031;44.750;11.308;2024-01-10T14:08:02;13.30;;;8.40;;
55134;SDS011;41031;44.750;11.308;2024-01-10T14:10:35;15.03;;;8.53;;
55134;SDS011;41031;44.750;11.308;2024-01-10T14:13:07;13.70;;;8.17;;
55134;SDS011;41031;44.750;11.308;2024-01-10T14:15:38;14.00;;;7.80;;
55134;SDS011;41031;44.750;11.308;2024-01-10T14:18:08;12.27;;;8.50;;
55134;SDS011;41031;44.750;11.308;2024-01-10T14:20:39;12.23;;;8.50;;
55134;SDS011;41031;44.750;11.308;2024-01-10T14:23:09;13.73;;;8.73;;
55134;SDS011;41031;44.750;11.308;2024-01-10T14:25:42;14.70;;;9.17;;
55134;SDS011;41031;44.750;11.308;2024-01-10T14:28:12;14.30;;;8.00;;
55134;SDS011;41031;44.750;11.308;2024-01-10T14:30:42;14.53;;;8.53;;
55134;SDS011;41031;44.750;11.308;2024-01-10T14:33:13;13.50;;;9.17;;
55134;SDS011;41031;44.750;11.308;2024-01-10T14:35:43;16.67;;;8.53;;
55134;SDS011;41031;44.750;11.308;2024-01-10T14:38:13;14.97;;;8.43;;
55134;SDS011;41031;44.750;11.308;2024-01-10T14:40:47;10.87;;;7.97;;
55134;SDS011;41031;44.750;11.308;2024-01-10T14:43:17;12.70;;;7.47;;
55134;SDS011;41031;44.750;11.308;2024-01-10T14:45:49;11.73;;;7.30;;
55134;SDS011;41031;44.750;11.308;2024-01-10T14:48:19;12.03;;;8.17;;
55134;SDS011;41031;44.750;11.308;2024-01-10T14:50:50;13.43;;;7.90;;
55134;SDS011;41031;44.750;11.308;2024-01-10T14:53:20;16.13;;;7.73;;
55134;SDS011;41031;44.750;11.308;2024-01-10T14:55:53;11.83;;;7.60;;
55134;SDS011;41031;44.750;11.308;2024-01-10T14:58:24;14.17;;;8.07;;
55134;SDS011;41031;44.750;11.308;2024-01-10T15:00:58;12.13;;;8.40;;